sensor_id;sensor_type;location;lat;lon;timestamp;temperature;humidity
40289;DHT22;28991;52.028;5.526;2023-07-29T00:01:09;23.40;62.30
40289;DHT22;28991;52.028;5.526;2023-07-29T00:03:34;23.50;62.30
40289;DHT22;28991;52.028;5.526;2023-07-29T00:06:00;23.40;62.30
40289;DHT22;28991;52.028;5.526;2023-07-29T00:08:26;23.40;62.30
40289;DHT22;28991;52.028;5.526;2023-07-29T00:10:51;23.40;62.30
40289;DHT22;28991;52.028;5.526;2023-07-29T00:13:17;23.40;62.30
40289;DHT22;28991;52.028;5.526;2023-07-29T00:15:43;23.60;62.50
40289;DHT22;28991;52.028;5.526;2023-07-29T00:18:08;23.40;62.30
40289;DHT22;28991;52.028;5.526;2023-07-29T00:20:34;23.40;62.30
40289;DHT22;28991;52.028;5.526;2023-07-29T00:22:59;23.40;62.30
40289;DHT22;28991;52.028;5.526;2023-07-29T00:25:26;23.40;62.30
40289;DHT22;28991;52.028;5.526;2023-07-29T00:27:54;23.40;62.30
40289;DHT22;28991;52.028;5.526;2023-07-29T00:30:19;23.40;62.30
40289;DHT22;28991;52.028;5.526;2023-07-29T00:32:45;23.40;62.30
40289;DHT22;28991;52.028;5.526;2023-07-29T00:35:10;23.40;62.30
40289;DHT22;28991;52.028;5.526;2023-07-29T00:37:36;23.40;62.30
40289;DHT22;28991;52.028;5.526;2023-07-29T00:40:04;23.40;62.30
40289;DHT22;28991;52.028;5.526;2023-07-29T00:42:32;23.40;62.30
40289;DHT22;28991;52.028;5.526;2023-07-29T00:44:58;23.40;62.30
40289;DHT22;28991;52.028;5.526;2023-07-29T00:47:25;23.40;62.30
40289;DHT22;28991;52.028;5.526;2023-07-29T00:49:51;23.40;62.30
40289;DHT22;28991;52.028;5.526;2023-07-29T00:52:17;23.40;62.30
40289;DHT22;28991;52.028;5.526;2023-07-29T00:54:42;23.40;62.30
40289;DHT22;28991;52.028;5.526;2023-07-29T00:57:11;23.40;62.30
40289;DHT22;28991;52.028;5.526;2023-07-29T00:59:39;23.40;62.30
40289;DHT22;28991;52.028;5.526;2023-07-29T01:02:06;23.30;62.30
40289;DHT22;28991;52.028;5.526;2023-07-29T01:04:32;23.30;62.30
40289;DHT22;28991;52.028;5.526;2023-07-29T01:18:18;23.40;62.40
40289;DHT22;28991;52.028;5.526;2023-07-29T01:20:47;23.30;62.30
40289;DHT22;28991;52.028;5.526;2023-07-29T01:23:14;23.30;62.30
40289;DHT22;28991;52.028;5.526;2023-07-29T01:25:41;23.30;62.30
40289;DHT22;28991;52.028;5.526;2023-07-29T01:28:06;23.30;62.30
40289;DHT22;28991;52.028;5.526;2023-07-29T01:30:38;23.30;62.30
40289;DHT22;28991;52.028;5.526;2023-07-29T01:33:22;23.30;62.90
40289;DHT22;28991;52.028;5.526;2023-07-29T01:36:07;23.30;62.40
40289;DHT22;28991;52.028;5.526;2023-07-29T01:38:38;23.30;62.40
40289;DHT22;28991;52.028;5.526;2023-07-29T01:41:07;23.30;62.30
40289;DHT22;28991;52.028;5.526;2023-07-29T01:43:33;23.30;62.30
40289;DHT22;28991;52.028;5.526;2023-07-29T01:46:00;23.30;62.30
40289;DHT22;28991;52.028;5.526;2023-07-29T01:48:26;23.30;62.30
40289;DHT22;28991;52.028;5.526;2023-07-29T01:50:53;23.30;62.30
40289;DHT22;28991;52.028;5.526;2023-07-29T01:53:18;23.40;62.40
40289;DHT22;28991;52.028;5.526;2023-07-29T01:55:44;23.30;62.30
40289;DHT22;28991;52.028;5.526;2023-07-29T01:58:10;23.30;62.30
40289;DHT22;28991;52.028;5.526;2023-07-29T02:00:36;23.30;62.30
40289;DHT22;28991;52.028;5.526;2023-07-29T02:03:02;23.30;62.30
40289;DHT22;28991;52.028;5.526;2023-07-29T02:05:27;23.40;62.40
40289;DHT22;28991;52.028;5.526;2023-07-29T02:07:53;23.30;62.30
40289;DHT22;28991;52.028;5.526;2023-07-29T02:10:19;23.30;62.30
40289;DHT22;28991;52.028;5.526;2023-07-29T02:12:44;23.30;62.30
40289;DHT22;28991;52.028;5.526;2023-07-29T02:15:10;23.30;62.30
40289;DHT22;28991;52.028;5.526;2023-07-29T02:17:36;23.30;62.30
40289;DHT22;28991;52.028;5.526;2023-07-29T02:20:02;23.30;62.90
40289;DHT22;28991;52.028;5.526;2023-07-29T02:22:29;23.30;62.30
40289;DHT22;28991;52.028;5.526;2023-07-29T02:24:54;23.40;62.40
40289;DHT22;28991;52.028;5.526;2023-07-29T02:27:20;23.60;62.50
40289;DHT22;28991;52.028;5.526;2023-07-29T02:29:45;23.30;62.30
40289;DHT22;28991;52.028;5.526;2023-07-29T02:32:11;23.30;62.30
40289;DHT22;28991;52.028;5.526;2023-07-29T02:34:36;23.30;62.30
40289;DHT22;28991;52.028;5.526;2023-07-29T02:37:02;23.30;62.30
40289;DHT22;28991;52.028;5.526;2023-07-29T02:39:28;23.30;62.30
40289;DHT22;28991;52.028;5.526;2023-07-29T02:41:53;23.30;62.30
40289;DHT22;28991;52.028;5.526;2023-07-29T02:44:20;23.30;62.30
40289;DHT22;28991;52.028;5.526;2023-07-29T02:46:46;23.30;62.30
40289;DHT22;28991;52.028;5.526;2023-07-29T02:49:11;23.30;62.30
40289;DHT22;28991;52.028;5.526;2023-07-29T02:51:37;23.30;62.30
40289;DHT22;28991;52.028;5.526;2023-07-29T02:54:03;23.30;62.30
40289;DHT22;28991;52.028;5.526;2023-07-29T02:56:28;23.30;62.30
40289;DHT22;28991;52.028;5.526;2023-07-29T02:58:55;23.30;62.30
40289;DHT22;28991;52.028;5.526;2023-07-29T03:01:22;23.30;62.30
40289;DHT22;28991;52.028;5.526;2023-07-29T03:03:48;23.30;62.30
40289;DHT22;28991;52.028;5.526;2023-07-29T03:06:14;23.30;62.30
40289;DHT22;28991;52.028;5.526;2023-07-29T03:08:40;23.30;62.30
40289;DHT22;28991;52.028;5.526;2023-07-29T03:11:15;23.30;62.30
40289;DHT22;28991;52.028;5.526;2023-07-29T03:13:41;23.30;62.30
40289;DHT22;28991;52.028;5.526;2023-07-29T03:16:09;23.30;62.30
40289;DHT22;28991;52.028;5.526;2023-07-29T03:18:35;23.30;62.30
40289;DHT22;28991;52.028;5.526;2023-07-29T03:21:02;23.30;62.30
40289;DHT22;28991;52.028;5.526;2023-07-29T03:23:28;23.30;62.30
40289;DHT22;28991;52.028;5.526;2023-07-29T03:25:58;23.40;62.30
40289;DHT22;28991;52.028;5.526;2023-07-29T03:28:26;23.30;62.30
40289;DHT22;28991;52.028;5.526;2023-07-29T03:30:53;23.30;62.30
40289;DHT22;28991;52.028;5.526;2023-07-29T03:33:18;23.30;62.30
40289;DHT22;28991;52.028;5.526;2023-07-29T03:35:44;23.30;62.30
40289;DHT22;28991;52.028;5.526;2023-07-29T03:38:11;23.50;62.40
40289;DHT22;28991;52.028;5.526;2023-07-29T03:40:37;23.30;62.30
40289;DHT22;28991;52.028;5.526;2023-07-29T03:43:03;23.20;62.20
40289;DHT22;28991;52.028;5.526;2023-07-29T03:45:28;23.30;62.30
40289;DHT22;28991;52.028;5.526;2023-07-29T03:47:54;23.30;62.30
40289;DHT22;28991;52.028;5.526;2023-07-29T03:50:19;23.30;62.30
40289;DHT22;28991;52.028;5.526;2023-07-29T03:52:45;23.30;62.30
40289;DHT22;28991;52.028;5.526;2023-07-29T03:55:10;23.30;62.30
40289;DHT22;28991;52.028;5.526;2023-07-29T03:57:36;23.20;62.20
40289;DHT22;28991;52.028;5.526;2023-07-29T04:00:02;23.20;62.20
40289;DHT22;28991;52.028;5.526;2023-07-29T04:02:28;23.30;62.30
40289;DHT22;28991;52.028;5.526;2023-07-29T04:04:54;23.30;62.30
40289;DHT22;28991;52.028;5.526;2023-07-29T04:07:19;23.30;62.30
40289;DHT22;28991;52.028;5.526;2023-07-29T04:09:45;23.30;62.30
40289;DHT22;28991;52.028;5.526;2023-07-29T04:12:11;23.30;62.30
40289;DHT22;28991;52.028;5.526;2023-07-29T04:14:37;23.30;62.30
40289;DHT22;28991;52.028;5.526;2023-07-29T04:17:02;23.30;62.30
40289;DHT22;28991;52.028;5.526;2023-07-29T04:19:28;23.30;62.30
40289;DHT22;28991;52.028;5.526;2023-07-29T04:21:53;23.30;62.30
40289;DHT22;28991;52.028;5.526;2023-07-29T04:24:19;23.20;62.20
40289;DHT22;28991;52.028;5.526;2023-07-29T04:26:45;23.30;62.30
40289;DHT22;28991;52.028;5.526;2023-07-29T04:29:11;23.30;62.30
40289;DHT22;28991;52.028;5.526;2023-07-29T04:31:37;23.20;62.20
40289;DHT22;28991;52.028;5.526;2023-07-29T04:34:04;23.20;62.20
40289;DHT22;28991;52.028;5.526;2023-07-29T04:36:30;23.20;62.20
40289;DHT22;28991;52.028;5.526;2023-07-29T04:38:55;23.30;62.30
40289;DHT22;28991;52.028;5.526;2023-07-29T04:41:21;23.20;62.20
40289;DHT22;28991;52.028;5.526;2023-07-29T04:43:46;23.30;62.30
40289;DHT22;28991;52.028;5.526;2023-07-29T04:46:12;23.20;62.20
40289;DHT22;28991;52.028;5.526;2023-07-29T04:48:38;23.30;62.30
40289;DHT22;28991;52.028;5.526;2023-07-29T04:51:03;23.20;62.20
40289;DHT22;28991;52.028;5.526;2023-07-29T04:53:29;23.20;62.20
40289;DHT22;28991;52.028;5.526;2023-07-29T04:55:55;23.20;62.20
40289;DHT22;28991;52.028;5.526;2023-07-29T04:58:20;23.30;62.30
40289;DHT22;28991;52.028;5.526;2023-07-29T05:00:47;23.50;62.30
40289;DHT22;28991;52.028;5.526;2023-07-29T05:03:12;23.20;62.20
40289;DHT22;28991;52.028;5.526;2023-07-29T05:05:38;23.20;62.20
40289;DHT22;28991;52.028;5.526;2023-07-29T05:08:03;23.20;62.20
40289;DHT22;28991;52.028;5.526;2023-07-29T05:10:29;23.30;62.20
40289;DHT22;28991;52.028;5.526;2023-07-29T05:12:55;23.20;62.20
40289;DHT22;28991;52.028;5.526;2023-07-29T05:15:20;23.30;62.30
40289;DHT22;28991;52.028;5.526;2023-07-29T05:17:46;23.20;62.20
40289;DHT22;28991;52.028;5.526;2023-07-29T05:20:11;23.30;62.20
40289;DHT22;28991;52.028;5.526;2023-07-29T05:22:37;23.30;62.20
40289;DHT22;28991;52.028;5.526;2023-07-29T05:25:03;23.30;62.20
40289;DHT22;28991;52.028;5.526;2023-07-29T05:27:28;23.30;62.20
40289;DHT22;28991;52.028;5.526;2023-07-29T05:29:54;23.20;62.20
40289;DHT22;28991;52.028;5.526;2023-07-29T05:32:19;23.20;62.10
40289;DHT22;28991;52.028;5.526;2023-07-29T05:34:45;23.30;62.20
40289;DHT22;28991;52.028;5.526;2023-07-29T05:37:11;23.20;62.10
40289;DHT22;28991;52.028;5.526;2023-07-29T05:39:36;23.30;62.20
40289;DHT22;28991;52.028;5.526;2023-07-29T05:42:03;23.30;62.20
40289;DHT22;28991;52.028;5.526;2023-07-29T05:44:29;23.20;62.20
40289;DHT22;28991;52.028;5.526;2023-07-29T05:46:56;23.20;62.10
40289;DHT22;28991;52.028;5.526;2023-07-29T05:49:21;23.30;62.20
40289;DHT22;28991;52.028;5.526;2023-07-29T05:51:47;23.30;62.20
40289;DHT22;28991;52.028;5.526;2023-07-29T05:54:13;23.30;62.20
40289;DHT22;28991;52.028;5.526;2023-07-29T05:56:38;23.20;62.10
40289;DHT22;28991;52.028;5.526;2023-07-29T05:59:04;23.30;62.10
40289;DHT22;28991;52.028;5.526;2023-07-29T06:01:29;23.30;62.10
40289;DHT22;28991;52.028;5.526;2023-07-29T06:03:55;23.20;62.10
40289;DHT22;28991;52.028;5.526;2023-07-29T06:06:20;23.30;62.10
40289;DHT22;28991;52.028;5.526;2023-07-29T06:08:49;23.30;62.10
40289;DHT22;28991;52.028;5.526;2023-07-29T06:11:15;23.30;62.10
40289;DHT22;28991;52.028;5.526;2023-07-29T06:13:40;23.30;62.10
40289;DHT22;28991;52.028;5.526;2023-07-29T06:16:06;23.30;62.10
40289;DHT22;28991;52.028;5.526;2023-07-29T06:18:31;23.30;62.00
40289;DHT22;28991;52.028;5.526;2023-07-29T06:20:57;23.30;61.90
40289;DHT22;28991;52.028;5.526;2023-07-29T06:23:23;23.40;61.90
40289;DHT22;28991;52.028;5.526;2023-07-29T06:25:48;23.30;61.80
40289;DHT22;28991;52.028;5.526;2023-07-29T06:28:14;23.40;61.80
40289;DHT22;28991;52.028;5.526;2023-07-29T06:30:39;23.40;61.80
40289;DHT22;28991;52.028;5.526;2023-07-29T06:33:06;23.60;61.90
40289;DHT22;28991;52.028;5.526;2023-07-29T06:35:31;23.40;61.70
40289;DHT22;28991;52.028;5.526;2023-07-29T06:37:57;23.50;61.80
40289;DHT22;28991;52.028;5.526;2023-07-29T06:40:22;23.50;61.70
40289;DHT22;28991;52.028;5.526;2023-07-29T06:42:48;23.50;61.70
40289;DHT22;28991;52.028;5.526;2023-07-29T06:45:14;23.50;61.70
40289;DHT22;28991;52.028;5.526;2023-07-29T06:47:40;24.40;62.10
40289;DHT22;28991;52.028;5.526;2023-07-29T06:50:06;23.60;61.60
40289;DHT22;28991;52.028;5.526;2023-07-29T06:52:32;23.60;61.60
40289;DHT22;28991;52.028;5.526;2023-07-29T06:54:58;23.60;61.60
40289;DHT22;28991;52.028;5.526;2023-07-29T06:57:24;23.60;61.50
40289;DHT22;28991;52.028;5.526;2023-07-29T06:59:49;23.60;61.50
40289;DHT22;28991;52.028;5.526;2023-07-29T07:02:15;23.60;61.50
40289;DHT22;28991;52.028;5.526;2023-07-29T07:04:40;23.60;61.50
40289;DHT22;28991;52.028;5.526;2023-07-29T07:07:06;23.60;61.50
40289;DHT22;28991;52.028;5.526;2023-07-29T07:09:31;23.60;61.40
40289;DHT22;28991;52.028;5.526;2023-07-29T07:11:57;23.60;61.40
40289;DHT22;28991;52.028;5.526;2023-07-29T07:14:22;23.60;61.40
40289;DHT22;28991;52.028;5.526;2023-07-29T07:16:48;23.60;61.40
40289;DHT22;28991;52.028;5.526;2023-07-29T07:19:14;23.60;61.40
40289;DHT22;28991;52.028;5.526;2023-07-29T07:21:39;23.60;61.40
40289;DHT22;28991;52.028;5.526;2023-07-29T07:24:05;23.80;61.50
40289;DHT22;28991;52.028;5.526;2023-07-29T07:26:31;23.60;61.40
40289;DHT22;28991;52.028;5.526;2023-07-29T07:28:56;23.60;61.40
40289;DHT22;28991;52.028;5.526;2023-07-29T07:31:22;23.60;61.40
40289;DHT22;28991;52.028;5.526;2023-07-29T07:33:48;23.60;61.40
40289;DHT22;28991;52.028;5.526;2023-07-29T07:36:13;23.60;61.40
40289;DHT22;28991;52.028;5.526;2023-07-29T07:38:39;23.60;61.40
40289;DHT22;28991;52.028;5.526;2023-07-29T07:41:04;23.60;61.40
40289;DHT22;28991;52.028;5.526;2023-07-29T07:43:30;23.60;61.40
40289;DHT22;28991;52.028;5.526;2023-07-29T07:46:00;23.60;61.40
40289;DHT22;28991;52.028;5.526;2023-07-29T07:48:26;23.60;61.40
40289;DHT22;28991;52.028;5.526;2023-07-29T07:50:52;23.50;61.40
40289;DHT22;28991;52.028;5.526;2023-07-29T07:53:18;23.60;61.40
40289;DHT22;28991;52.028;5.526;2023-07-29T07:55:45;23.50;61.40
40289;DHT22;28991;52.028;5.526;2023-07-29T07:58:10;23.60;62.00
40289;DHT22;28991;52.028;5.526;2023-07-29T08:00:36;23.60;61.40
40289;DHT22;28991;52.028;5.526;2023-07-29T08:03:02;23.60;61.40
40289;DHT22;28991;52.028;5.526;2023-07-29T08:05:28;23.60;61.40
40289;DHT22;28991;52.028;5.526;2023-07-29T08:07:54;23.60;61.40
40289;DHT22;28991;52.028;5.526;2023-07-29T08:10:20;23.60;61.40
40289;DHT22;28991;52.028;5.526;2023-07-29T08:12:45;23.60;61.30
40289;DHT22;28991;52.028;5.526;2023-07-29T08:15:11;23.60;61.30
40289;DHT22;28991;52.028;5.526;2023-07-29T08:17:37;23.60;61.30
40289;DHT22;28991;52.028;5.526;2023-07-29T08:20:02;23.60;61.30
40289;DHT22;28991;52.028;5.526;2023-07-29T08:22:28;23.60;61.30
40289;DHT22;28991;52.028;5.526;2023-07-29T08:24:54;23.60;61.30
40289;DHT22;28991;52.028;5.526;2023-07-29T08:27:19;23.60;61.20
40289;DHT22;28991;52.028;5.526;2023-07-29T08:29:45;23.60;61.20
40289;DHT22;28991;52.028;5.526;2023-07-29T08:32:10;23.70;61.20
40289;DHT22;28991;52.028;5.526;2023-07-29T08:34:36;23.70;61.10
40289;DHT22;28991;52.028;5.526;2023-07-29T08:37:02;23.60;61.00
40289;DHT22;28991;52.028;5.526;2023-07-29T08:39:27;23.60;61.00
40289;DHT22;28991;52.028;5.526;2023-07-29T08:42:05;23.70;61.00
40289;DHT22;28991;52.028;5.526;2023-07-29T08:44:41;23.70;60.90
40289;DHT22;28991;52.028;5.526;2023-07-29T08:47:06;23.70;60.90
40289;DHT22;28991;52.028;5.526;2023-07-29T08:49:33;23.70;60.90
40289;DHT22;28991;52.028;5.526;2023-07-29T08:51:59;23.70;60.90
40289;DHT22;28991;52.028;5.526;2023-07-29T08:54:25;23.70;60.90
40289;DHT22;28991;52.028;5.526;2023-07-29T08:56:51;23.70;60.90
40289;DHT22;28991;52.028;5.526;2023-07-29T08:59:19;23.70;60.90
40289;DHT22;28991;52.028;5.526;2023-07-29T09:01:46;23.70;60.90
40289;DHT22;28991;52.028;5.526;2023-07-29T09:04:12;23.70;60.80
40289;DHT22;28991;52.028;5.526;2023-07-29T09:06:39;23.80;60.80
40289;DHT22;28991;52.028;5.526;2023-07-29T09:09:06;23.80;60.80
40289;DHT22;28991;52.028;5.526;2023-07-29T09:11:33;23.80;60.70
40289;DHT22;28991;52.028;5.526;2023-07-29T09:13:58;23.90;60.70
40289;DHT22;28991;52.028;5.526;2023-07-29T09:16:24;24.00;60.60
40289;DHT22;28991;52.028;5.526;2023-07-29T09:18:51;23.90;60.50
40289;DHT22;28991;52.028;5.526;2023-07-29T09:21:26;24.10;60.50
40289;DHT22;28991;52.028;5.526;2023-07-29T09:23:54;24.00;60.30
40289;DHT22;28991;52.028;5.526;2023-07-29T09:26:27;24.00;60.20
40289;DHT22;28991;52.028;5.526;2023-07-29T09:28:54;24.20;60.30
40289;DHT22;28991;52.028;5.526;2023-07-29T09:31:21;24.10;60.10
40289;DHT22;28991;52.028;5.526;2023-07-29T09:33:47;24.10;60.00
40289;DHT22;28991;52.028;5.526;2023-07-29T09:36:14;24.10;60.00
40289;DHT22;28991;52.028;5.526;2023-07-29T09:38:39;24.20;60.00
40289;DHT22;28991;52.028;5.526;2023-07-29T09:41:05;24.20;59.80
40289;DHT22;28991;52.028;5.526;2023-07-29T09:43:35;24.20;59.80
40289;DHT22;28991;52.028;5.526;2023-07-29T09:46:02;24.20;59.70
40289;DHT22;28991;52.028;5.526;2023-07-29T09:48:28;24.20;59.70
40289;DHT22;28991;52.028;5.526;2023-07-29T09:50:57;24.30;59.70
40289;DHT22;28991;52.028;5.526;2023-07-29T09:53:24;24.40;59.70
40289;DHT22;28991;52.028;5.526;2023-07-29T09:55:50;24.30;59.60
40289;DHT22;28991;52.028;5.526;2023-07-29T09:58:25;24.30;59.60
40289;DHT22;28991;52.028;5.526;2023-07-29T10:00:51;24.30;59.60
40289;DHT22;28991;52.028;5.526;2023-07-29T10:03:18;24.30;59.50
40289;DHT22;28991;52.028;5.526;2023-07-29T10:05:46;24.30;59.50
40289;DHT22;28991;52.028;5.526;2023-07-29T10:08:13;24.30;59.50
40289;DHT22;28991;52.028;5.526;2023-07-29T10:10:41;24.30;59.50
40289;DHT22;28991;52.028;5.526;2023-07-29T10:13:07;24.40;59.50
40289;DHT22;28991;52.028;5.526;2023-07-29T10:15:35;24.30;59.40
40289;DHT22;28991;52.028;5.526;2023-07-29T10:18:02;24.40;59.40
40289;DHT22;28991;52.028;5.526;2023-07-29T10:20:30;24.40;59.40
40289;DHT22;28991;52.028;5.526;2023-07-29T10:22:56;24.30;59.40
40289;DHT22;28991;52.028;5.526;2023-07-29T10:25:25;24.40;60.00
40289;DHT22;28991;52.028;5.526;2023-07-29T10:27:53;24.40;59.30
40289;DHT22;28991;52.028;5.526;2023-07-29T10:30:19;24.40;59.30
40289;DHT22;28991;52.028;5.526;2023-07-29T10:32:45;24.40;59.30
40289;DHT22;28991;52.028;5.526;2023-07-29T10:35:14;24.40;59.30
40289;DHT22;28991;52.028;5.526;2023-07-29T10:37:41;24.40;59.30
40289;DHT22;28991;52.028;5.526;2023-07-29T10:40:09;24.40;59.30
40289;DHT22;28991;52.028;5.526;2023-07-29T10:42:35;24.30;59.20
40289;DHT22;28991;52.028;5.526;2023-07-29T10:45:18;24.40;59.30
40289;DHT22;28991;52.028;5.526;2023-07-29T10:47:44;24.30;59.30
40289;DHT22;28991;52.028;5.526;2023-07-29T10:50:18;24.30;59.30
40289;DHT22;28991;52.028;5.526;2023-07-29T10:52:49;24.30;59.30
40289;DHT22;28991;52.028;5.526;2023-07-29T10:55:29;24.30;59.20
40289;DHT22;28991;52.028;5.526;2023-07-29T10:58:16;24.30;59.30
40289;DHT22;28991;52.028;5.526;2023-07-29T11:00:45;24.30;59.30
40289;DHT22;28991;52.028;5.526;2023-07-29T11:03:13;24.30;59.30
40289;DHT22;28991;52.028;5.526;2023-07-29T11:05:50;24.30;59.30
40289;DHT22;28991;52.028;5.526;2023-07-29T11:08:20;24.30;59.30
40289;DHT22;28991;52.028;5.526;2023-07-29T11:11:02;24.20;59.30
40289;DHT22;28991;52.028;5.526;2023-07-29T11:13:30;24.20;59.30
40289;DHT22;28991;52.028;5.526;2023-07-29T11:15:57;24.20;59.30
40289;DHT22;28991;52.028;5.526;2023-07-29T11:18:27;24.20;59.40
40289;DHT22;28991;52.028;5.526;2023-07-29T11:20:54;24.20;59.40
40289;DHT22;28991;52.028;5.526;2023-07-29T11:23:27;24.20;59.40
40289;DHT22;28991;52.028;5.526;2023-07-29T11:25:52;24.20;59.40
40289;DHT22;28991;52.028;5.526;2023-07-29T11:28:18;24.20;59.50
40289;DHT22;28991;52.028;5.526;2023-07-29T11:30:43;24.20;59.50
40289;DHT22;28991;52.028;5.526;2023-07-29T11:33:10;24.20;59.50
40289;DHT22;28991;52.028;5.526;2023-07-29T11:35:36;24.20;59.50
40289;DHT22;28991;52.028;5.526;2023-07-29T11:38:02;24.10;59.50
40289;DHT22;28991;52.028;5.526;2023-07-29T11:40:29;24.10;59.50
40289;DHT22;28991;52.028;5.526;2023-07-29T11:42:55;24.10;59.50
40289;DHT22;28991;52.028;5.526;2023-07-29T11:45:21;24.10;59.50
40289;DHT22;28991;52.028;5.526;2023-07-29T11:47:47;24.10;59.50
40289;DHT22;28991;52.028;5.526;2023-07-29T11:50:14;24.10;59.60
40289;DHT22;28991;52.028;5.526;2023-07-29T11:52:41;24.10;59.60
40289;DHT22;28991;52.028;5.526;2023-07-29T11:55:08;24.00;59.60
40289;DHT22;28991;52.028;5.526;2023-07-29T11:57:35;24.10;59.60
40289;DHT22;28991;52.028;5.526;2023-07-29T12:00:08;24.00;59.60
40289;DHT22;28991;52.028;5.526;2023-07-29T12:02:39;24.00;59.60
40289;DHT22;28991;52.028;5.526;2023-07-29T12:05:06;24.00;59.60
40289;DHT22;28991;52.028;5.526;2023-07-29T12:07:32;24.00;59.60
40289;DHT22;28991;52.028;5.526;2023-07-29T12:10:02;24.00;59.60
40289;DHT22;28991;52.028;5.526;2023-07-29T12:12:29;24.00;59.70
40289;DHT22;28991;52.028;5.526;2023-07-29T12:14:54;24.00;59.70
40289;DHT22;28991;52.028;5.526;2023-07-29T12:17:20;24.00;60.30
40289;DHT22;28991;52.028;5.526;2023-07-29T12:19:46;24.00;59.70
40289;DHT22;28991;52.028;5.526;2023-07-29T12:22:11;24.00;59.70
40289;DHT22;28991;52.028;5.526;2023-07-29T12:24:38;24.00;59.70
40289;DHT22;28991;52.028;5.526;2023-07-29T12:27:05;24.00;59.70
40289;DHT22;28991;52.028;5.526;2023-07-29T12:29:31;24.00;59.70
40289;DHT22;28991;52.028;5.526;2023-07-29T12:32:02;24.00;59.70
40289;DHT22;28991;52.028;5.526;2023-07-29T12:34:28;24.00;59.70
40289;DHT22;28991;52.028;5.526;2023-07-29T12:36:55;24.00;59.70
40289;DHT22;28991;52.028;5.526;2023-07-29T12:39:28;24.00;59.70
40289;DHT22;28991;52.028;5.526;2023-07-29T12:41:55;24.00;59.70
40289;DHT22;28991;52.028;5.526;2023-07-29T12:44:23;24.00;59.60
40289;DHT22;28991;52.028;5.526;2023-07-29T12:46:49;24.10;60.30
40289;DHT22;28991;52.028;5.526;2023-07-29T12:49:15;24.10;59.70
40289;DHT22;28991;52.028;5.526;2023-07-29T12:51:41;24.10;59.70
40289;DHT22;28991;52.028;5.526;2023-07-29T12:54:06;24.10;59.70
40289;DHT22;28991;52.028;5.526;2023-07-29T12:56:32;24.00;59.60
40289;DHT22;28991;52.028;5.526;2023-07-29T12:58:59;24.10;59.70
40289;DHT22;28991;52.028;5.526;2023-07-29T13:01:25;24.10;59.70
40289;DHT22;28991;52.028;5.526;2023-07-29T13:03:51;24.00;59.60
40289;DHT22;28991;52.028;5.526;2023-07-29T13:06:16;24.00;59.60
40289;DHT22;28991;52.028;5.526;2023-07-29T13:08:43;24.10;59.60
40289;DHT22;28991;52.028;5.526;2023-07-29T13:11:09;24.10;59.70
40289;DHT22;28991;52.028;5.526;2023-07-29T13:13:35;24.00;59.60
40289;DHT22;28991;52.028;5.526;2023-07-29T13:16:00;24.00;59.60
40289;DHT22;28991;52.028;5.526;2023-07-29T13:18:26;24.10;59.70
40289;DHT22;28991;52.028;5.526;2023-07-29T13:20:52;24.00;59.60
40289;DHT22;28991;52.028;5.526;2023-07-29T13:23:17;24.10;59.70
40289;DHT22;28991;52.028;5.526;2023-07-29T13:25:43;24.10;59.70
40289;DHT22;28991;52.028;5.526;2023-07-29T13:28:10;24.10;59.70
40289;DHT22;28991;52.028;5.526;2023-07-29T13:30:35;24.00;59.70
40289;DHT22;28991;52.028;5.526;2023-07-29T13:33:01;24.00;59.70
40289;DHT22;28991;52.028;5.526;2023-07-29T13:35:27;24.00;59.70
40289;DHT22;28991;52.028;5.526;2023-07-29T13:37:52;24.00;59.60
40289;DHT22;28991;52.028;5.526;2023-07-29T13:40:18;24.10;59.70
40289;DHT22;28991;52.028;5.526;2023-07-29T13:42:43;24.10;59.70
40289;DHT22;28991;52.028;5.526;2023-07-29T13:45:09;24.10;59.70
40289;DHT22;28991;52.028;5.526;2023-07-29T13:47:35;24.10;59.70
40289;DHT22;28991;52.028;5.526;2023-07-29T13:50:01;24.00;59.70
40289;DHT22;28991;52.028;5.526;2023-07-29T13:52:27;24.10;59.70
40289;DHT22;28991;52.028;5.526;2023-07-29T13:54:52;24.10;59.70
40289;DHT22;28991;52.028;5.526;2023-07-29T13:57:18;24.10;59.70
40289;DHT22;28991;52.028;5.526;2023-07-29T13:59:43;24.10;59.90
40289;DHT22;28991;52.028;5.526;2023-07-29T14:02:09;24.10;59.70
40289;DHT22;28991;52.028;5.526;2023-07-29T14:04:34;24.10;59.70
40289;DHT22;28991;52.028;5.526;2023-07-29T14:07:00;24.00;59.60
40289;DHT22;28991;52.028;5.526;2023-07-29T14:09:27;24.10;59.70
40289;DHT22;28991;52.028;5.526;2023-07-29T14:11:54;24.10;59.70
40289;DHT22;28991;52.028;5.526;2023-07-29T14:14:19;24.10;59.70
40289;DHT22;28991;52.028;5.526;2023-07-29T14:16:45;24.10;59.70
40289;DHT22;28991;52.028;5.526;2023-07-29T14:19:11;24.00;59.60
40289;DHT22;28991;52.028;5.526;2023-07-29T14:21:36;24.10;59.70
40289;DHT22;28991;52.028;5.526;2023-07-29T14:24:02;24.00;59.60
40289;DHT22;28991;52.028;5.526;2023-07-29T14:26:28;24.10;59.70
40289;DHT22;28991;52.028;5.526;2023-07-29T14:28:53;24.10;59.70
40289;DHT22;28991;52.028;5.526;2023-07-29T14:31:19;24.10;59.70
40289;DHT22;28991;52.028;5.526;2023-07-29T14:33:45;24.00;59.60
40289;DHT22;28991;52.028;5.526;2023-07-29T14:36:10;24.10;59.70
40289;DHT22;28991;52.028;5.526;2023-07-29T14:38:36;24.10;59.70
40289;DHT22;28991;52.028;5.526;2023-07-29T14:41:02;24.00;59.60
40289;DHT22;28991;52.028;5.526;2023-07-29T14:43:30;24.00;59.70
40289;DHT22;28991;52.028;5.526;2023-07-29T14:45:56;24.10;59.70
40289;DHT22;28991;52.028;5.526;2023-07-29T14:48:22;24.00;59.70
40289;DHT22;28991;52.028;5.526;2023-07-29T14:50:48;24.10;59.70
40289;DHT22;28991;52.028;5.526;2023-07-29T14:53:13;24.20;59.80
40289;DHT22;28991;52.028;5.526;2023-07-29T14:55:39;24.10;59.70
40289;DHT22;28991;52.028;5.526;2023-07-29T14:58:05;24.20;59.80
40289;DHT22;28991;52.028;5.526;2023-07-29T15:00:30;24.10;59.70
40289;DHT22;28991;52.028;5.526;2023-07-29T15:02:56;24.00;59.70
40289;DHT22;28991;52.028;5.526;2023-07-29T15:05:22;24.10;59.70
40289;DHT22;28991;52.028;5.526;2023-07-29T15:07:47;24.10;59.70
40289;DHT22;28991;52.028;5.526;2023-07-29T15:10:16;24.10;59.70
40289;DHT22;28991;52.028;5.526;2023-07-29T15:12:42;24.10;59.70
40289;DHT22;28991;52.028;5.526;2023-07-29T15:15:08;24.10;59.70
40289;DHT22;28991;52.028;5.526;2023-07-29T15:17:34;24.10;59.70
40289;DHT22;28991;52.028;5.526;2023-07-29T15:20:00;24.00;59.70
40289;DHT22;28991;52.028;5.526;2023-07-29T15:22:25;24.10;59.70
40289;DHT22;28991;52.028;5.526;2023-07-29T15:24:51;24.10;59.70
40289;DHT22;28991;52.028;5.526;2023-07-29T15:27:16;24.10;59.70
40289;DHT22;28991;52.028;5.526;2023-07-29T15:29:42;24.10;59.70
40289;DHT22;28991;52.028;5.526;2023-07-29T15:32:07;24.10;59.70
40289;DHT22;28991;52.028;5.526;2023-07-29T15:34:33;24.10;59.70
40289;DHT22;28991;52.028;5.526;2023-07-29T15:36:59;24.10;59.70